Time;durP1;ratioP1;P1;durP2;ratioP2;P2;SDS_P1;SDS_P2;PMS_P1;PMS_P2;Temp;Humidity;BMP_temperature;BMP_pressure;BME280_temperature;BME280_humidity;BME280_pressure;Samples;Min_cycle;Max_cycle;Signal;HPM_P1;HPM_P2
2023/06/26 00:01:39;;;;;;;8.85;4.90;;;;;;;20.77;89.74;99938.28;5050075;28;20176;-62
2023/06/26 00:04:05;;;;;;;9.88;4.95;;;;;;;20.76;89.99;99928.47;5049536;28;20048;-62
2023/06/26 00:06:30;;;;;;;10.52;5.15;;;;;;;20.73;90.27;99934.09;5049507;28;20033;-62
2023/06/26 00:08:58;;;;;;;10.57;5.38;;;;;;;20.72;90.55;99934.22;5049039;28;20033;-62
2023/06/26 00:11:24;;;;;;;8.88;4.95;;;;;;;20.71;91.04;99936.06;5049367;28;20025;-63
2023/06/26 00:13:50;;;;;;;7.47;4.13;;;;;;;20.68;90.97;99941.69;5049623;28;20362;-62
2023/06/26 00:16:16;;;;;;;9.02;4.70;;;;;;;20.63;91.37;99938.47;5048810;28;20029;-62
2023/06/26 00:18:41;;;;;;;10.20;4.70;;;;;;;20.49;90.83;99929.69;5049261;28;20021;-63
2023/06/26 00:21:07;;;;;;;9.35;4.97;;;;;;;20.48;90.95;99945.00;5036841;28;20427;-63
2023/06/26 00:23:36;;;;;;;10.50;4.90;;;;;;;20.40;91.51;99933.91;5043769;28;20693;-62
2023/06/26 00:26:02;;;;;;;10.68;5.38;;;;;;;20.43;91.85;99947.19;5049276;28;20548;-62
2023/06/26 00:28:27;;;;;;;9.30;5.07;;;;;;;20.47;91.83;99954.13;5031303;28;20033;-62
2023/06/26 00:30:53;;;;;;;9.70;4.72;;;;;;;20.45;91.58;99953.34;5048133;28;20031;-62
2023/06/26 00:33:18;;;;;;;7.55;4.82;;;;;;;20.42;92.11;99953.59;5048503;28;20032;-62
2023/06/26 00:35:44;;;;;;;9.90;5.45;;;;;;;20.41;92.66;99949.13;5047658;28;20021;-62
2023/06/26 00:38:09;;;;;;;10.93;5.57;;;;;;;20.34;92.45;99945.19;5048639;28;20029;-62
2023/06/26 00:40:34;;;;;;;9.30;5.22;;;;;;;20.38;92.71;99954.78;5049062;28;20025;-62
2023/06/26 00:43:00;;;;;;;8.82;4.97;;;;;;;20.39;92.75;99951.13;5049194;28;20037;-63
2023/06/26 00:45:25;;;;;;;8.57;5.00;;;;;;;20.38;93.00;99946.66;5048826;28;20024;-63
2023/06/26 00:47:51;;;;;;;8.10;4.95;;;;;;;20.35;92.41;99952.31;5049529;28;20025;-62
2023/06/26 00:50:17;;;;;;;9.05;5.03;;;;;;;20.37;92.01;99946.78;5048992;28;20021;-63
2023/06/26 00:52:43;;;;;;;9.70;5.70;;;;;;;20.35;90.68;99944.19;5049523;28;20025;-63
2023/06/26 00:55:09;;;;;;;8.70;4.80;;;;;;;20.43;89.20;99947.19;5045387;28;20032;-63
2023/06/26 00:57:34;;;;;;;10.90;6.25;;;;;;;20.47;86.94;99954.13;5048725;28;20033;-64
2023/06/26 01:00:36;;;;;;;9.60;5.40;;;;;;;20.55;86.79;99949.00;5049373;28;20075;-63
2023/06/26 01:03:01;;;;;;;8.82;5.60;;;;;;;20.57;86.86;99954.28;5007136;28;20038;-63
2023/06/26 01:05:28;;;;;;;10.73;4.70;;;;;;;20.51;86.60;99950.19;5004959;28;20579;-63
2023/06/26 01:07:54;;;;;;;9.98;5.30;;;;;;;20.49;85.92;99946.72;4983823;28;20047;-63
2023/06/26 01:10:20;;;;;;;9.90;5.00;;;;;;;20.57;85.87;99954.28;4987340;28;20120;-63
2023/06/26 01:12:45;;;;;;;10.60;5.25;;;;;;;20.62;85.51;99958.38;4986877;28;20514;-63
2023/06/26 01:15:11;;;;;;;9.48;4.93;;;;;;;20.64;83.10;99956.41;4987482;28;20072;-63
2023/06/26 01:17:38;;;;;;;9.55;5.30;;;;;;;20.73;81.94;99950.31;4982640;28;20478;-63
2023/06/26 01:20:09;;;;;;;11.75;5.35;;;;;;;20.79;81.92;99949.84;4987430;28;20029;-63
2023/06/26 01:22:45;;;;;;;8.95;5.65;;;;;;;20.78;82.67;99948.13;4986810;28;20081;-63
2023/06/26 01:25:23;;;;;;;8.77;4.50;;;;;;;20.76;82.99;99941.97;4987388;28;20478;-63
2023/06/26 01:27:51;;;;;;;10.15;5.72;;;;;;;20.73;83.82;99938.63;4985918;28;20042;-63
2023/06/26 01:30:18;;;;;;;10.55;5.18;;;;;;;20.68;83.90;99947.09;4986110;28;20138;-63
2023/06/26 01:32:44;;;;;;;9.27;4.88;;;;;;;20.60;84.50;99944.13;4987587;28;20034;-63
2023/06/26 01:35:11;;;;;;;9.77;5.63;;;;;;;20.53;84.83;99937.44;5026180;28;20128;-63
2023/06/26 01:37:36;;;;;;;9.30;5.50;;;;;;;20.43;85.42;99936.38;5028350;28;20083;-63
2023/06/26 01:40:05;;;;;;;8.15;4.57;;;;;;;20.35;86.30;99922.59;5006935;28;20478;-63
2023/06/26 01:42:33;;;;;;;8.93;5.18;;;;;;;20.33;86.97;99919.13;5015562;28;20465;-63
2023/06/26 01:45:04;;;;;;;9.70;5.90;;;;;;;20.28;87.43;99924.00;5028642;28;20083;-63
2023/06/26 01:47:33;;;;;;;9.98;5.05;;;;;;;20.23;88.02;99923.47;5033595;28;20039;-63
2023/06/26 01:50:11;;;;;;;8.27;5.05;;;;;;;20.15;87.98;99912.38;5028978;28;20033;-63
2023/06/26 01:52:53;;;;;;;9.90;5.28;;;;;;;20.13;87.88;99922.38;5028753;28;20025;-63
2023/06/26 01:55:35;;;;;;;8.90;5.40;;;;;;;20.12;88.02;99925.22;5028608;28;20037;-63
2023/06/26 01:58:01;;;;;;;11.02;5.45;;;;;;;20.03;88.08;99915.09;5009472;28;20038;-63
2023/06/26 02:00:27;;;;;;;10.40;5.50;;;;;;;20.01;88.46;99912.50;5029469;28;20029;-63
2023/06/26 02:02:53;;;;;;;8.32;5.28;;;;;;;20.03;88.76;99920.50;5008082;28;20197;-64
2023/06/26 02:05:18;;;;;;;9.93;5.60;;;;;;;19.99;89.20;99919.84;5036740;28;20638;-63
2023/06/26 02:07:44;;;;;;;8.48;5.55;;;;;;;19.91;89.20;99921.38;5046535;28;20039;-64
2023/06/26 02:10:10;;;;;;;12.27;5.70;;;;;;;19.84;89.06;99923.66;5047023;28;20057;-63
2023/06/26 02:12:37;;;;;;;10.15;5.47;;;;;;;19.82;89.81;99914.78;5048701;28;20198;-63
2023/06/26 02:15:04;;;;;;;9.88;5.38;;;;;;;19.79;90.53;99909.63;5048347;28;20461;-64
2023/06/26 02:17:30;;;;;;;9.23;5.53;;;;;;;19.78;90.44;99907.03;5049806;28;20028;-64
2023/06/26 02:19:55;;;;;;;9.85;5.65;;;;;;;19.79;89.74;99906.91;5052272;28;20033;-63
2023/06/26 02:22:20;;;;;;;8.98;5.35;;;;;;;19.81;90.62;99898.72;5052163;28;20017;-63
2023/06/26 02:24:46;;;;;;;16.75;6.65;;;;;;;19.80;90.18;99908.66;5030583;28;20420;-63
2023/06/26 02:27:11;;;;;;;10.68;5.70;;;;;;;19.78;90.14;99899.81;5052546;28;20383;-63
2023/06/26 02:29:37;;;;;;;15.82;6.10;;;;;;;19.77;89.77;99898.06;5052516;28;20029;-63
2023/06/26 02:32:03;;;;;;;10.48;5.18;;;;;;;19.77;90.08;99899.91;5042686;28;20028;-63
2023/06/26 02:34:30;;;;;;;10.50;5.90;;;;;;;19.80;90.76;99899.69;5052463;28;20493;-63
2023/06/26 02:36:56;;;;;;;10.63;5.50;;;;;;;19.80;89.76;99907.78;5052128;28;20060;-64
2023/06/26 02:39:21;;;;;;;11.60;5.50;;;;;;;19.77;88.62;99908.00;5048491;28;20044;-63
2023/06/26 02:41:47;;;;;;;9.70;5.28;;;;;;;19.74;87.97;99905.50;5050550;28;20468;-63
2023/06/26 02:44:14;;;;;;;8.30;5.18;;;;;;;19.72;87.45;99905.63;5051489;28;20403;-64
2023/06/26 02:46:40;;;;;;;9.10;5.47;;;;;;;19.70;87.74;99910.28;5050842;28;20033;-64
2023/06/26 02:49:05;;;;;;;10.93;4.93;;;;;;;19.64;88.88;99905.31;5050602;28;20029;-63
2023/06/26 02:51:32;;;;;;;10.95;5.00;;;;;;;19.63;89.02;99917.09;5050327;28;20040;-63
2023/06/26 02:53:58;;;;;;;9.48;5.38;;;;;;;19.53;89.79;99924.09;5049948;28;20108;-63
2023/06/26 02:56:23;;;;;;;8.38;4.85;;;;;;;19.47;89.81;99906.50;5050294;28;20167;-64
2023/06/26 02:58:49;;;;;;;13.05;5.63;;;;;;;19.47;90.23;99908.38;5050341;28;20103;-64
2023/06/26 03:01:14;;;;;;;11.50;6.10;;;;;;;19.49;90.53;99909.09;5051103;28;20027;-63
2023/06/26 03:03:41;;;;;;;9.75;5.78;;;;;;;19.58;89.99;99924.66;5051401;28;20048;-63
2023/06/26 03:06:07;;;;;;;17.00;6.88;;;;;;;19.66;90.10;99919.56;5051921;28;20068;-63
2023/06/26 03:08:37;;;;;;;12.90;6.57;;;;;;;19.72;88.85;99916.41;5048195;28;20044;-64
2023/06/26 03:11:02;;;;;;;10.60;6.38;;;;;;;19.74;88.39;99925.28;5037609;28;20029;-64
2023/06/26 03:13:27;;;;;;;9.70;5.93;;;;;;;19.74;88.04;99916.31;5037325;28;20025;-64
2023/06/26 03:15:53;;;;;;;11.13;6.00;;;;;;;19.75;87.97;99921.63;5050491;28;20036;-64
2023/06/26 03:18:18;;;;;;;13.73;6.22;;;;;;;19.74;88.15;99925.28;5051050;28;20035;-64
2023/06/26 03:20:44;;;;;;;15.90;6.03;;;;;;;19.74;88.03;99933.38;5033664;28;20374;-63
2023/06/26 03:23:09;;;;;;;10.25;5.13;;;;;;;19.67;87.56;99923.13;5051253;28;20036;-63
2023/06/26 03:25:34;;;;;;;10.85;5.32;;;;;;;19.62;87.60;99929.72;5049624;28;20037;-63
2023/06/26 03:28:00;;;;;;;10.40;5.55;;;;;;;19.55;87.45;99919.47;5047132;28;20044;-63
2023/06/26 03:30:25;;;;;;;10.68;5.38;;;;;;;19.52;88.28;99914.31;5047420;28;20029;-63
2023/06/26 03:32:51;;;;;;;12.40;5.70;;;;;;;19.55;89.02;99927.56;5048957;28;20635;-63
2023/06/26 03:35:16;;;;;;;9.68;5.30;;;;;;;19.53;89.25;99933.06;5047334;28;20024;-63
2023/06/26 03:37:41;;;;;;;14.77;6.75;;;;;;;19.50;89.88;99927.88;5045157;28;20029;-63
2023/06/26 03:40:08;;;;;;;10.40;6.28;;;;;;;19.45;89.57;99924.66;5029894;28;20116;-63
2023/06/26 03:42:33;;;;;;;9.88;6.25;;;;;;;19.52;88.83;99935.88;5047229;28;20035;-63
2023/06/26 03:44:58;;;;;;;12.15;6.13;;;;;;;19.47;88.69;99935.34;5048489;28;20084;-63
2023/06/26 03:47:24;;;;;;;10.63;5.40;;;;;;;19.44;88.92;99932.84;5032009;28;20036;-63
2023/06/26 03:49:49;;;;;;;9.80;5.18;;;;;;;19.46;89.43;99939.00;5049561;28;20384;-63
2023/06/26 03:52:15;;;;;;;12.00;5.53;;;;;;;19.47;89.20;99933.50;5049403;28;20247;-64
2023/06/26 03:54:41;;;;;;;9.30;6.57;;;;;;;19.51;90.05;99939.53;5048669;28;20032;-64
2023/06/26 03:57:06;;;;;;;10.02;5.78;;;;;;;19.53;90.08;99933.06;5047926;28;20052;-64
2023/06/26 03:59:32;;;;;;;12.50;5.80;;;;;;;19.60;90.09;99937.03;5047271;28;20131;-64
2023/06/26 04:01:57;;;;;;;11.07;5.82;;;;;;;19.65;90.29;99942.16;5047297;28;20091;-64
2023/06/26 04:04:22;;;;;;;9.30;5.13;;;;;;;19.71;90.42;99935.44;5032424;28;20072;-64
2023/06/26 04:06:48;;;;;;;8.95;5.30;;;;;;;19.83;89.68;99940.84;5006654;28;20026;-64
2023/06/26 04:09:13;;;;;;;8.90;5.63;;;;;;;19.96;88.41;99944.38;5008707;28;20018;-64
2023/06/26 04:11:39;;;;;;;9.57;4.93;;;;;;;20.08;88.31;99940.75;5009406;28;20032;-64
2023/06/26 04:14:04;;;;;;;10.25;5.55;;;;;;;20.19;87.30;99942.72;5011958;28;20032;-64
2023/06/26 04:16:30;;;;;;;9.10;5.50;;;;;;;20.29;87.39;99958.16;5029292;28;20036;-64
2023/06/26 04:18:56;;;;;;;11.60;6.35;;;;;;;20.35;86.59;99957.72;5027035;28;20241;-64
2023/06/26 04:21:24;;;;;;;9.75;5.80;;;;;;;20.44;86.95;99965.16;5024325;28;20408;-64
2023/06/26 04:23:50;;;;;;;10.63;5.15;;;;;;;20.48;86.44;99972.03;5029338;28;20021;-63
2023/06/26 04:26:15;;;;;;;8.88;5.57;;;;;;;20.50;85.65;99962.00;5028917;28;20037;-64
2023/06/26 04:28:41;;;;;;;10.70;5.78;;;;;;;20.51;85.28;99963.69;5030450;28;20029;-63
2023/06/26 04:31:06;;;;;;;10.52;5.25;;;;;;;20.59;84.52;99955.88;5029845;28;20537;-64
2023/06/26 04:33:32;;;;;;;9.82;5.55;;;;;;;20.65;83.05;99963.56;5029445;28;20416;-64
2023/06/26 04:35:57;;;;;;;12.73;5.63;;;;;;;20.74;82.63;99962.84;5030545;28;20074;-64
2023/06/26 04:38:23;;;;;;;8.93;5.20;;;;;;;20.77;82.00;99956.38;5018420;28;20032;-64
2023/06/26 04:40:49;;;;;;;10.77;5.32;;;;;;;20.91;81.15;99965.16;5026703;28;20060;-62
2023/06/26 04:43:14;;;;;;;13.02;6.40;;;;;;;20.99;81.35;99961.06;5023560;28;20392;-63
2023/06/26 04:45:40;;;;;;;9.15;5.78;;;;;;;20.99;79.52;99961.06;5024516;28;20068;-63
2023/06/26 04:48:09;;;;;;;9.63;5.60;;;;;;;21.07;79.70;99959.47;5027675;28;20033;-63
2023/06/26 04:50:35;;;;;;;11.85;6.00;;;;;;;21.19;79.53;99965.78;5026551;28;20382;-62
2023/06/26 04:53:00;;;;;;;9.57;5.57;;;;;;;21.30;79.68;99960.44;5027304;28;20029;-63
2023/06/26 04:55:27;;;;;;;8.95;5.45;;;;;;;21.35;78.55;99974.47;5027964;28;20358;-62
2023/06/26 04:57:52;;;;;;;9.02;5.20;;;;;;;21.38;76.82;99968.81;5026813;28;20033;-62
2023/06/26 05:00:18;;;;;;;12.60;5.18;;;;;;;21.49;77.14;99966.13;5026275;28;20039;-63
2023/06/26 05:02:43;;;;;;;9.38;5.47;;;;;;;21.59;77.19;99972.53;5026803;28;20025;-63
2023/06/26 05:05:10;;;;;;;9.95;5.13;;;;;;;21.65;76.57;99970.22;5014997;28;20393;-63
2023/06/26 05:07:36;;;;;;;10.10;6.10;;;;;;;21.71;75.71;99963.47;5025526;28;20033;-62
2023/06/26 05:10:01;;;;;;;9.32;5.35;;;;;;;21.79;74.81;99959.22;5017474;28;20080;-63
2023/06/26 05:12:26;;;;;;;8.00;5.43;;;;;;;21.88;74.67;99960.28;5024476;28;20031;-62
2023/06/26 05:14:52;;;;;;;9.38;5.18;;;;;;;21.99;74.47;99954.91;5027099;28;20056;-62
2023/06/26 05:17:17;;;;;;;10.90;6.40;;;;;;;22.14;74.71;99961.81;5027585;28;20385;-62
2023/06/26 05:19:42;;;;;;;8.77;5.07;;;;;;;22.28;73.92;99961.53;5026718;28;20030;-62
2023/06/26 05:22:09;;;;;;;11.27;5.95;;;;;;;22.35;73.71;99957.34;5024117;28;20036;-62
2023/06/26 05:24:38;;;;;;;10.13;5.82;;;;;;;22.50;74.05;99975.06;5007568;28;20032;-62
2023/06/26 05:27:04;;;;;;;11.02;5.32;;;;;;;22.59;73.55;99979.75;5020582;28;20115;-62
2023/06/26 05:29:31;;;;;;;6.95;4.80;;;;;;;22.67;73.84;99990.81;5024386;28;20029;-62
2023/06/26 05:31:57;;;;;;;8.20;5.28;;;;;;;22.74;73.23;99986.63;5022205;28;20033;-62
2023/06/26 05:34:29;;;;;;;13.05;5.55;;;;;;;22.84;72.41;99993.00;5021407;28;20033;-62
2023/06/26 05:36:59;;;;;;;11.82;4.70;;;;;;;22.93;72.25;99975.94;5025817;28;20029;-63
2023/06/26 05:39:24;;;;;;;7.85;5.07;;;;;;;23.06;70.99;99981.22;5026124;28;20029;-63
2023/06/26 05:41:51;;;;;;;9.15;4.72;;;;;;;23.16;69.65;99980.28;5026054;28;20025;-62
2023/06/26 05:44:16;;;;;;;8.77;5.20;;;;;;;23.32;69.01;99978.06;5025606;28;20370;-61
2023/06/26 05:46:42;;;;;;;7.72;4.78;;;;;;;23.46;68.74;99978.72;5026233;28;20037;-63
2023/06/26 05:49:07;;;;;;;8.65;5.45;;;;;;;23.60;67.62;99973.81;5039346;28;20115;-62
2023/06/26 05:51:33;;;;;;;8.32;4.95;;;;;;;23.77;66.85;99983.22;5027818;28;20681;-62
2023/06/26 05:53:59;;;;;;;7.93;4.72;;;;;;;23.87;66.23;99986.84;5028410;28;20454;-61
2023/06/26 05:56:24;;;;;;;8.45;5.07;;;;;;;24.00;65.91;99990.25;5030023;28;20497;-61
2023/06/26 05:58:52;;;;;;;8.60;5.18;;;;;;;24.04;64.94;99980.81;5030895;28;20033;-62
2023/06/26 06:01:17;;;;;;;8.43;4.93;;;;;;;24.16;63.79;99988.75;5029709;28;20034;-62
2023/06/26 06:03:42;;;;;;;8.43;5.20;;;;;;;24.20;62.29;99992.06;5026401;28;20029;-62
2023/06/26 06:06:08;;;;;;;7.72;4.70;;;;;;;24.37;62.72;99986.84;5049168;28;20052;-62
2023/06/26 06:08:33;;;;;;;10.90;5.03;;;;;;;24.45;63.06;99991.56;5049999;28;20132;-62
2023/06/26 06:11:00;;;;;;;8.75;5.13;;;;;;;24.52;61.67;99998.19;5052396;28;20358;-61
2023/06/26 06:13:25;;;;;;;7.28;4.10;;;;;;;24.62;61.10;99993.63;5051927;28;20111;-61
2023/06/26 06:15:51;;;;;;;9.02;4.88;;;;;;;24.77;61.02;99997.72;5051159;28;20575;-64
2023/06/26 06:18:16;;;;;;;8.45;4.32;;;;;;;24.88;61.15;99994.88;5035532;28;20033;-63
2023/06/26 06:20:42;;;;;;;9.15;4.85;;;;;;;25.03;61.05;100004.34;5036722;28;20022;-63
2023/06/26 06:23:07;;;;;;;9.60;4.45;;;;;;;25.19;62.17;100010.09;5031993;28;20074;-61
2023/06/26 06:25:32;;;;;;;9.85;4.60;;;;;;;25.35;60.22;100013.16;5037660;28;20027;-61
2023/06/26 06:27:58;;;;;;;9.05;4.40;;;;;;;25.50;60.20;100008.97;5046513;28;20033;-62
2023/06/26 06:30:23;;;;;;;8.07;4.50;;;;;;;25.69;59.35;100014.41;5048325;28;20033;-61
2023/06/26 06:32:51;;;;;;;11.05;4.72;;;;;;;25.78;58.50;100018.16;5041872;28;20037;-61
2023/06/26 06:35:20;;;;;;;8.43;4.20;;;;;;;25.88;57.38;100014.38;5047537;28;20512;-63
2023/06/26 06:37:45;;;;;;;10.43;4.40;;;;;;;25.99;58.13;100007.91;5046118;28;20029;-63
2023/06/26 06:40:11;;;;;;;8.05;4.15;;;;;;;26.08;57.70;100014.38;5049162;28;20446;-63
2023/06/26 06:42:36;;;;;;;7.63;4.57;;;;;;;26.23;56.63;100016.47;5049518;28;20028;-64
2023/06/26 06:45:03;;;;;;;8.27;4.30;;;;;;;26.40;56.50;100014.81;5032147;28;20481;-63
2023/06/26 06:47:29;;;;;;;8.38;4.03;;;;;;;26.57;56.92;100014.88;5049475;28;20029;-63
2023/06/26 06:49:54;;;;;;;7.47;4.40;;;;;;;26.78;57.36;100025.59;5035242;28;20022;-63
2023/06/26 06:52:19;;;;;;;8.95;4.30;;;;;;;26.92;57.52;100022.31;5040522;28;20025;-63
2023/06/26 06:54:55;;;;;;;7.60;4.20;;;;;;;27.08;58.45;100022.53;5041406;28;20029;-63
2023/06/26 06:57:22;;;;;;;8.48;4.47;;;;;;;27.19;57.01;100025.03;5049999;28;20029;-63
2023/06/26 06:59:48;;;;;;;7.70;4.38;;;;;;;27.42;56.71;100022.72;5050765;28;20643;-63
2023/06/26 07:02:15;;;;;;;9.25;4.20;;;;;;;27.50;55.76;100033.72;5031122;28;20021;-63
2023/06/26 07:04:40;;;;;;;9.27;5.15;;;;;;;27.70;55.63;100025.19;5043251;28;20386;-63
2023/06/26 07:07:06;;;;;;;6.72;4.13;;;;;;;27.80;54.10;100025.97;5039594;28;20028;-63
2023/06/26 07:09:31;;;;;;;7.35;4.07;;;;;;;27.96;54.42;100028.84;5048107;28;20028;-64
2023/06/26 07:11:57;;;;;;;8.50;4.82;;;;;;;28.03;52.68;100021.75;5032455;28;20021;-64
2023/06/26 07:14:23;;;;;;;9.95;4.43;;;;;;;28.16;54.42;100019.44;5043885;28;20353;-64
2023/06/26 07:16:48;;;;;;;7.40;4.50;;;;;;;28.40;54.92;100025.03;5037687;28;20036;-63
2023/06/26 07:19:14;;;;;;;7.88;4.88;;;;;;;28.67;52.61;100021.25;5039386;28;20049;-63
2023/06/26 07:21:41;;;;;;;8.93;5.15;;;;;;;28.93;52.40;100022.03;5033065;28;20035;-63
2023/06/26 07:24:06;;;;;;;8.05;4.60;;;;;;;29.12;50.59;100030.03;5035443;28;20036;-64
2023/06/26 07:26:32;;;;;;;8.55;4.60;;;;;;;29.42;50.19;100023.06;5033187;28;20369;-63
2023/06/26 07:28:57;;;;;;;8.55;4.65;;;;;;;29.73;48.58;100021.38;5033352;28;20112;-63
2023/06/26 07:31:22;;;;;;;9.85;4.85;;;;;;;30.18;47.60;100029.06;5035412;28;20029;-64
2023/06/26 07:33:48;;;;;;;7.43;4.63;;;;;;;30.48;46.72;100031.06;5029550;28;20132;-63
2023/06/26 07:36:13;;;;;;;7.82;4.25;;;;;;;30.80;46.75;100040.09;5046672;28;20588;-63
2023/06/26 07:38:39;;;;;;;7.03;4.22;;;;;;;30.64;45.88;100034.59;5032096;28;20116;-63
2023/06/26 07:41:04;;;;;;;6.93;3.97;;;;;;;30.48;46.83;100040.16;5030951;28;20032;-63
2023/06/26 07:43:30;;;;;;;7.03;4.32;;;;;;;30.21;47.01;100043.31;5049322;28;20044;-63
2023/06/26 07:45:58;;;;;;;7.45;4.20;;;;;;;29.78;47.92;100051.91;5050267;28;20025;-62
2023/06/26 07:48:24;;;;;;;8.55;4.40;;;;;;;29.65;48.56;100062.50;5049263;28;20417;-62
2023/06/26 07:50:49;;;;;;;8.60;4.03;;;;;;;29.55;49.90;100056.31;5049906;28;20044;-63
2023/06/26 07:53:15;;;;;;;8.23;4.40;;;;;;;29.42;49.94;100058.69;5049696;28;20094;-62
2023/06/26 07:55:40;;;;;;;8.55;4.90;;;;;;;29.57;48.74;100060.59;5049376;28;20092;-62
2023/06/26 07:58:07;;;;;;;7.10;4.40;;;;;;;29.95;47.94;100058.25;5049140;28;20028;-62
2023/06/26 08:00:33;;;;;;;6.95;4.10;;;;;;;30.43;46.86;100055.44;5048456;28;20029;-63
2023/06/26 08:02:58;;;;;;;7.20;4.53;;;;;;;30.75;45.62;100058.97;5049914;28;20102;-62
2023/06/26 08:05:23;;;;;;;7.18;4.43;;;;;;;30.97;45.25;100062.00;5049525;28;20052;-63
2023/06/26 08:07:49;;;;;;;7.75;4.13;;;;;;;31.16;46.58;100061.53;5049075;28;20029;-63
2023/06/26 08:10:14;;;;;;;5.95;3.63;;;;;;;30.87;46.42;100060.31;5050294;28;20032;-62
2023/06/26 08:12:42;;;;;;;6.50;3.78;;;;;;;30.74;46.73;100062.72;5044115;28;20029;-61
2023/06/26 08:15:09;;;;;;;6.75;3.95;;;;;;;30.66;47.34;100076.50;5048923;28;20025;-62
2023/06/26 08:17:35;;;;;;;6.40;3.85;;;;;;;30.87;46.61;100068.53;5043601;28;20498;-62
2023/06/26 08:20:01;;;;;;;6.18;3.67;;;;;;;30.97;47.13;100067.50;5042907;28;20036;-61
2023/06/26 08:22:27;;;;;;;7.82;3.95;;;;;;;30.91;46.33;100077.28;5029527;28;20029;-62
2023/06/26 08:24:52;;;;;;;6.07;3.45;;;;;;;31.23;47.04;100073.53;5034535;28;20036;-62
2023/06/26 08:27:18;;;;;;;6.38;4.18;;;;;;;31.25;45.84;100082.47;5043236;28;20037;-62
2023/06/26 08:29:43;;;;;;;6.85;3.50;;;;;;;31.09;47.18;100085.31;5029571;28;20026;-61
2023/06/26 08:32:08;;;;;;;7.40;4.20;;;;;;;31.34;46.15;100089.66;5045458;28;20487;-62
2023/06/26 08:34:34;;;;;;;8.63;3.90;;;;;;;31.23;46.92;100090.91;5049743;28;20063;-63
2023/06/26 08:36:59;;;;;;;7.45;3.47;;;;;;;31.00;46.32;100089.97;5038017;28;20037;-63
2023/06/26 08:39:24;;;;;;;6.88;3.90;;;;;;;30.55;47.47;100087.88;5035411;28;20096;-62
2023/06/26 08:41:50;;;;;;;9.68;4.10;;;;;;;30.30;49.21;100090.81;5047696;28;20033;-63
2023/06/26 08:44:16;;;;;;;6.65;4.25;;;;;;;30.17;49.76;100090.44;5033360;28;20075;-62
2023/06/26 08:46:42;;;;;;;6.82;3.75;;;;;;;29.88;49.73;100088.25;5028313;28;20128;-63
2023/06/26 08:49:18;;;;;;;7.25;3.88;;;;;;;29.86;50.26;100092.19;5031703;28;20033;-63
2023/06/26 08:51:51;;;;;;;8.73;3.90;;;;;;;30.10;50.92;100101.25;5043940;28;20529;-62
2023/06/26 08:54:17;;;;;;;;;;;;;;;30.23;50.32;100096.13;5028966;28;20025;-63
2023/06/26 08:56:46;;;;;;;6.85;3.58;;;;;;;29.84;51.18;100111.56;5035027;28;19912;-63
2023/06/26 08:59:14;;;;;;;7.47;3.95;;;;;;;29.82;50.46;100101.78;5042590;28;20033;-62
2023/06/26 09:01:40;;;;;;;8.73;4.07;;;;;;;29.58;51.39;100108.94;5039174;28;20123;-63
2023/06/26 09:04:06;;;;;;;10.93;4.15;;;;;;;29.77;52.58;100113.25;5029559;28;20068;-62
2023/06/26 09:06:32;;;;;;;6.85;3.97;;;;;;;29.98;53.62;100113.63;5045532;28;20037;-62
2023/06/26 09:08:57;;;;;;;6.18;3.65;;;;;;;30.06;51.45;100116.38;5048971;28;20107;-63
2023/06/26 09:11:23;;;;;;;5.97;3.85;;;;;;;30.05;51.54;100125.63;5049370;28;20465;-63
2023/06/26 09:13:48;;;;;;;6.22;3.55;;;;;;;30.12;51.00;100132.13;5046546;28;20041;-63
2023/06/26 09:16:14;;;;;;;6.35;3.80;;;;;;;29.86;51.02;100125.09;5043387;28;20491;-63
2023/06/26 09:18:42;;;;;;;6.60;4.18;;;;;;;29.72;52.16;100129.34;5049315;28;20299;-62
2023/06/26 09:21:09;;;;;;;7.70;3.65;;;;;;;29.72;53.82;100129.34;5048306;28;20089;-63
2023/06/26 09:23:35;;;;;;;10.05;4.07;;;;;;;29.70;54.18;100125.94;5049383;28;20500;-63
2023/06/26 09:26:05;;;;;;;7.32;3.60;;;;;;;29.77;52.91;100121.47;5048399;28;20381;-63
2023/06/26 09:28:35;;;;;;;9.93;4.03;;;;;;;30.48;50.75;100127.16;5031036;28;20029;-62
2023/06/26 09:31:05;;;;;;;8.15;3.83;;;;;;;31.27;48.18;100132.63;5027761;28;20116;-63
2023/06/26 09:33:38;;;;;;;7.03;3.70;;;;;;;31.32;47.79;100133.00;5039678;28;20036;-62
2023/06/26 09:36:09;;;;;;;6.28;3.50;;;;;;;31.56;48.03;100132.84;5044070;28;20492;-62
2023/06/26 09:38:35;;;;;;;5.70;3.33;;;;;;;32.08;47.53;100132.00;5038351;28;20032;-63
2023/06/26 09:41:02;;;;;;;9.55;4.00;;;;;;;32.56;47.18;100140.88;5028242;28;20029;-63
2023/06/26 09:43:28;;;;;;;5.35;3.38;;;;;;;32.33;45.96;100135.38;5034702;28;20044;-62
2023/06/26 09:45:54;;;;;;;7.03;3.55;;;;;;;31.89;45.35;100145.41;5030323;28;20029;-63
2023/06/26 09:48:19;;;;;;;6.35;3.85;;;;;;;31.56;45.67;100138.34;5026969;28;20029;-63
2023/06/26 09:50:45;;;;;;;5.43;3.20;;;;;;;31.27;46.73;100141.72;5029097;28;20036;-63
2023/06/26 09:53:15;;;;;;;6.13;3.30;;;;;;;31.36;46.81;100137.94;5046986;28;20078;-63
2023/06/26 09:55:43;;;;;;;9.13;3.47;;;;;;;31.85;46.92;100147.66;5040927;28;20060;-63
2023/06/26 09:58:14;;;;;;;5.10;3.28;;;;;;;32.32;45.54;100136.44;5028827;28;20116;-62
2023/06/26 10:00:40;;;;;;;6.60;3.15;;;;;;;32.22;44.76;100138.59;5034315;28;20037;-62
2023/06/26 10:03:05;;;;;;;8.93;3.47;;;;;;;32.26;43.93;100141.84;5028727;28;20062;-63
2023/06/26 10:05:31;;;;;;;6.18;3.15;;;;;;;32.81;43.84;100139.59;5030593;28;20562;-63
2023/06/26 10:07:58;;;;;;;5.75;2.85;;;;;;;32.85;42.06;100143.69;5029587;28;20025;-63
2023/06/26 10:10:25;;;;;;;6.07;2.92;;;;;;;33.07;41.78;100146.38;5035003;28;20025;-63
2023/06/26 10:12:59;;;;;;;7.38;3.60;;;;;;;33.49;42.54;100142.06;5040543;28;20107;-63
2023/06/26 10:15:25;;;;;;;6.38;4.13;;;;;;;33.20;41.94;100152.06;5043743;28;20039;-62
2023/06/26 10:17:52;;;;;;;4.95;2.65;;;;;;;32.99;42.00;100124.44;5028348;28;20480;-62
2023/06/26 10:20:18;;;;;;;6.07;2.63;;;;;;;33.47;40.45;100145.03;5028430;28;20712;-62
2023/06/26 10:22:47;;;;;;;4.57;2.53;;;;;;;33.93;40.36;100148.34;5041623;28;20079;-62
2023/06/26 10:25:18;;;;;;;7.15;2.55;;;;;;;34.29;39.74;100143.63;5040848;28;20041;-62
2023/06/26 10:27:50;;;;;;;4.72;2.63;;;;;;;34.74;38.88;100143.19;5031291;28;20160;-62
2023/06/26 10:30:20;;;;;;;5.00;2.83;;;;;;;34.65;39.69;100149.91;5031167;28;20021;-63
2023/06/26 10:32:47;;;;;;;8.23;2.85;;;;;;;35.04;37.93;100141.06;5027495;28;20526;-63
2023/06/26 10:35:12;;;;;;;4.05;2.40;;;;;;;34.83;37.80;100152.19;5041496;28;20112;-63
2023/06/26 10:37:48;;;;;;;5.10;2.20;;;;;;;34.54;37.19;100151.31;5029393;28;20021;-62
2023/06/26 10:40:20;;;;;;;3.80;2.08;;;;;;;35.04;38.18;100149.34;5047266;28;20029;-63
2023/06/26 10:42:46;;;;;;;4.15;2.13;;;;;;;35.24;37.72;100156.69;5032552;28;20024;-62
2023/06/26 10:45:15;;;;;;;4.47;2.13;;;;;;;35.30;36.72;100155.91;5043055;28;20045;-63
2023/06/26 10:47:42;;;;;;;8.30;2.22;;;;;;;34.97;34.61;100145.69;5034877;28;20061;-63
2023/06/26 10:50:20;;;;;;;3.50;1.90;;;;;;;34.74;36.25;100165.28;5040202;28;20397;-62
2023/06/26 10:52:45;;;;;;;5.32;3.85;;;;;;;35.16;36.33;100165.16;5046978;28;20035;-63
2023/06/26 10:55:11;;;;;;;3.55;1.80;;;;;;;35.10;34.62;100157.69;5035147;28;20029;-63
2023/06/26 10:57:38;;;;;;;3.85;1.67;;;;;;;35.24;35.03;100167.75;5031592;28;20060;-63
2023/06/26 11:00:11;;;;;;;5.43;1.90;;;;;;;35.38;34.53;100157.66;5032372;28;20025;-62
2023/06/26 11:02:51;;;;;;;;;;;;;;;35.11;34.80;100162.16;5033982;28;20065;-64
2023/06/26 11:05:32;;;;;;;3.92;2.17;;;;;;;35.55;36.22;100161.78;5034513;28;19928;-63
2023/06/26 11:08:03;;;;;;;4.72;2.10;;;;;;;35.57;34.16;100168.81;5031394;28;20072;-64
2023/06/26 11:10:29;;;;;;;4.05;2.00;;;;;;;35.77;34.41;100164.19;5035450;28;20052;-64
2023/06/26 11:12:57;;;;;;;4.93;2.03;;;;;;;35.74;34.23;100177.59;5046017;28;20033;-63
2023/06/26 11:15:26;;;;;;;6.65;2.20;;;;;;;35.17;32.99;100172.44;5034733;28;20635;-64
2023/06/26 11:17:52;;;;;;;7.18;2.13;;;;;;;35.29;34.35;100175.47;5031533;28;20025;-63
2023/06/26 11:20:17;;;;;;;4.90;2.25;;;;;;;35.54;32.58;100169.22;5046304;28;20029;-64
2023/06/26 11:22:43;;;;;;;6.13;1.83;;;;;;;35.74;33.44;100167.41;5042908;28;20029;-63
2023/06/26 11:25:10;;;;;;;4.82;2.03;;;;;;;34.95;32.18;100170.78;5036063;28;20039;-63
2023/06/26 11:27:38;;;;;;;4.20;2.00;;;;;;;35.29;33.18;100165.25;5031598;28;20064;-64